Time;durP1;ratioP1;P1;durP2;ratioP2;P2;SDS_P1;SDS_P2;PMS_P1;PMS_P2;Temp;Humidity;BMP_temperature;BMP_pressure;BME280_temperature;BME280_humidity;BME280_pressure;Samples;Min_cycle;Max_cycle;Signal;HPM_P1;HPM_P2
2023/06/24 00:01:17;;;;;;;3.15;2.38;;;;;;;20.08;93.94;101385.53;5080788;28;20032;-72
2023/06/24 00:03:46;;;;;;;3.85;2.17;;;;;;;20.05;95.39;101385.38;5047242;28;20024;-72
2023/06/24 00:06:18;;;;;;;3.88;2.60;;;;;;;20.02;95.97;101378.44;5100789;28;20035;-72
2023/06/24 00:08:44;;;;;;;6.53;2.90;;;;;;;19.99;96.38;101383.91;5064749;28;20042;-73
2023/06/24 00:11:10;;;;;;;3.75;2.53;;;;;;;19.94;97.06;101384.91;5080526;28;20376;-72
2023/06/24 00:13:36;;;;;;;4.15;2.80;;;;;;;19.90;96.91;101377.50;5080097;28;20028;-73
2023/06/24 00:16:01;;;;;;;6.72;2.88;;;;;;;19.86;98.10;101378.16;5092960;28;20031;-72
2023/06/24 00:18:28;;;;;;;3.50;2.60;;;;;;;19.84;98.44;101377.66;5064048;28;20047;-73
2023/06/24 00:20:55;;;;;;;3.65;2.50;;;;;;;19.78;98.42;101379.00;5039377;28;20387;-73
2023/06/24 00:23:24;;;;;;;5.55;2.88;;;;;;;19.75;98.90;101374.06;5080226;28;20404;-73
2023/06/24 00:25:51;;;;;;;5.38;2.85;;;;;;;19.71;99.57;101378.69;5063463;28;20129;-73
2023/06/24 00:28:16;;;;;;;4.68;3.00;;;;;;;19.67;100.00;101376.88;5065433;28;20076;-73
2023/06/24 00:30:42;;;;;;;3.38;2.85;;;;;;;19.63;100.00;101371.06;5047212;28;20024;-73
2023/06/24 00:33:10;;;;;;;4.28;2.60;;;;;;;19.59;100.00;101365.25;5094712;28;20038;-73
2023/06/24 00:35:37;;;;;;;4.55;2.88;;;;;;;19.56;100.00;101376.38;5093185;28;20027;-72
2023/06/24 00:38:03;;;;;;;4.07;2.72;;;;;;;19.53;100.00;101366.59;5046773;28;20028;-73
2023/06/24 00:40:29;;;;;;;3.97;2.80;;;;;;;19.52;100.00;101370.56;5072928;28;20106;-73
2023/06/24 00:42:54;;;;;;;3.45;3.05;;;;;;;19.45;100.00;101372.25;5099165;28;20027;-72
2023/06/24 00:45:20;;;;;;;3.10;2.47;;;;;;;19.41;100.00;101375.72;5063502;28;20028;-72
2023/06/24 00:47:45;;;;;;;4.55;2.70;;;;;;;19.39;100.00;101368.78;5061906;28;20047;-72
2023/06/24 00:50:14;;;;;;;6.40;3.47;;;;;;;19.36;100.00;101367.47;5046544;28;20077;-73
2023/06/24 00:52:42;;;;;;;3.55;3.00;;;;;;;19.30;100.00;101363.13;5084166;28;20220;-72
2023/06/24 00:55:12;;;;;;;3.95;2.97;;;;;;;19.29;100.00;101360.66;5080387;28;20063;-73
2023/06/24 00:57:39;;;;;;;6.47;3.35;;;;;;;19.25;100.00;101360.50;5087502;28;20105;-72
2023/06/24 01:00:09;;;;;;;4.13;2.78;;;;;;;19.22;100.00;101361.16;5079640;28;20025;-73
2023/06/24 01:02:37;;;;;;;6.28;3.22;;;;;;;19.20;100.00;101363.50;5117441;28;20118;-73
2023/06/24 01:05:03;;;;;;;5.38;3.03;;;;;;;19.17;100.00;101361.34;5077390;28;20034;-72
2023/06/24 01:07:29;;;;;;;4.57;3.25;;;;;;;19.13;100.00;101355.53;5079731;28;20036;-73
2023/06/24 01:09:55;;;;;;;3.90;3.05;;;;;;;19.08;100.00;101360.50;5061520;28;20024;-72
2023/06/24 01:12:21;;;;;;;6.07;2.92;;;;;;;19.07;100.00;101358.84;5079986;28;20027;-72
2023/06/24 01:14:46;;;;;;;3.45;2.80;;;;;;;19.02;100.00;101351.38;5112630;28;20031;-73
2023/06/24 01:17:15;;;;;;;3.78;2.80;;;;;;;19.01;100.00;101346.09;5099837;28;20038;-73
2023/06/24 01:19:50;;;;;;;4.25;2.67;;;;;;;18.99;100.00;101343.63;5064625;28;20025;-73
2023/06/24 01:22:48;;;;;;;7.00;2.80;;;;;;;18.96;100.00;101336.66;5083376;28;20072;-72
2023/06/24 01:25:35;;;;;;;3.50;2.85;;;;;;;18.93;100.00;101342.94;5030259;28;20532;-73
2023/06/24 01:28:36;;;;;;;3.20;2.50;;;;;;;18.88;100.00;101337.47;5114455;28;20051;-73
2023/06/24 01:31:23;;;;;;;3.10;2.35;;;;;;;18.86;100.00;101339.81;5078614;28;20036;-72
2023/06/24 01:33:52;;;;;;;4.95;2.90;;;;;;;18.84;100.00;101335.69;5118341;28;20028;-73
2023/06/24 01:36:17;;;;;;;3.38;2.40;;;;;;;18.80;100.00;101335.47;5079566;28;20040;-72
2023/06/24 01:38:46;;;;;;;3.92;2.65;;;;;;;18.78;100.00;101340.63;5054841;28;20085;-73
2023/06/24 01:41:12;;;;;;;5.13;2.85;;;;;;;18.75;100.00;101344.13;5082751;28;20048;-73
2023/06/24 01:43:37;;;;;;;5.05;3.05;;;;;;;18.70;100.00;101333.81;5082410;28;20027;-73
2023/06/24 01:46:03;;;;;;;3.67;2.58;;;;;;;18.68;100.00;101329.66;5079190;28;20032;-72
2023/06/24 01:48:28;;;;;;;3.50;2.80;;;;;;;18.66;100.00;101332.78;5038176;28;20492;-73
2023/06/24 01:50:59;;;;;;;4.30;2.97;;;;;;;18.62;100.00;101334.63;5079169;28;20158;-72
2023/06/24 01:53:24;;;;;;;4.53;2.67;;;;;;;18.60;100.00;101333.28;5091840;28;20063;-73
2023/06/24 01:55:50;;;;;;;3.90;2.72;;;;;;;18.57;100.00;101333.94;5045679;28;20028;-73
2023/06/24 01:58:15;;;;;;;4.18;2.75;;;;;;;18.52;100.00;101330.13;5045530;28;20032;-73
2023/06/24 02:00:42;;;;;;;4.03;3.00;;;;;;;18.52;100.00;101329.28;5083000;28;20048;-73
2023/06/24 02:03:07;;;;;;;4.97;2.92;;;;;;;18.46;100.00;101325.00;5082650;28;20039;-72
2023/06/24 02:05:33;;;;;;;4.45;2.92;;;;;;;18.44;100.00;101336.59;5045713;28;20032;-73
2023/06/24 02:07:59;;;;;;;4.38;2.92;;;;;;;18.41;100.00;101330.75;5062751;28;20465;-72
2023/06/24 02:10:24;;;;;;;4.40;2.88;;;;;;;18.38;100.00;101332.25;5081673;28;20024;-73
2023/06/24 02:12:50;;;;;;;3.72;2.92;;;;;;;18.36;100.00;101331.75;5082149;28;20035;-73
2023/06/24 02:15:16;;;;;;;4.57;3.13;;;;;;;18.32;100.00;101330.75;5121018;28;20055;-72
2023/06/24 02:17:41;;;;;;;5.30;3.45;;;;;;;18.28;100.00;101321.31;5086111;28;20066;-72
2023/06/24 02:20:08;;;;;;;5.47;3.10;;;;;;;18.26;100.00;101329.25;5065988;28;20032;-72
2023/06/24 02:22:35;;;;;;;3.03;2.50;;;;;;;18.23;100.00;101327.09;5058875;28;20028;-72
2023/06/24 02:25:00;;;;;;;4.35;2.92;;;;;;;18.21;100.00;101329.38;5068471;28;20384;-72
2023/06/24 02:27:26;;;;;;;3.92;2.75;;;;;;;18.18;100.00;101324.41;5049409;28;20035;-72
2023/06/24 02:29:51;;;;;;;3.65;2.60;;;;;;;18.18;100.00;101332.84;5080560;28;20392;-73
2023/06/24 02:32:16;;;;;;;3.63;2.80;;;;;;;18.16;100.00;101326.72;5094411;28;20023;-73
2023/06/24 02:34:42;;;;;;;4.68;3.17;;;;;;;18.11;100.00;101326.88;5077677;28;20035;-72
2023/06/24 02:37:08;;;;;;;4.35;3.10;;;;;;;18.09;100.00;101330.03;5066032;28;20028;-73
2023/06/24 02:39:33;;;;;;;5.05;3.03;;;;;;;18.04;100.00;101325.38;5079971;28;20035;-72
2023/06/24 02:41:59;;;;;;;3.40;2.90;;;;;;;18.00;100.00;101320.72;5068400;28;20046;-73
2023/06/24 02:44:24;;;;;;;4.68;2.97;;;;;;;17.99;100.00;101319.88;5081809;28;20545;-72
2023/06/24 02:46:50;;;;;;;3.75;3.05;;;;;;;17.96;100.00;101323.34;5073261;28;20043;-72
2023/06/24 02:49:15;;;;;;;5.38;2.90;;;;;;;17.93;100.00;101321.19;5048529;28;20476;-72
2023/06/24 02:51:41;;;;;;;3.92;2.40;;;;;;;17.93;100.00;101321.19;5065717;28;20039;-72
2023/06/24 02:54:07;;;;;;;3.95;2.88;;;;;;;17.88;100.00;101318.50;5048985;28;20027;-73
2023/06/24 02:56:32;;;;;;;3.78;3.10;;;;;;;17.85;100.00;101320.00;5065447;28;20024;-73
2023/06/24 02:58:57;;;;;;;4.03;3.03;;;;;;;17.82;100.00;101309.41;5098665;28;20031;-72
2023/06/24 03:01:25;;;;;;;4.20;2.80;;;;;;;17.80;100.00;101308.06;5082120;28;20024;-72
2023/06/24 03:03:52;;;;;;;4.15;2.88;;;;;;;17.78;100.00;101304.75;5083054;28;20035;-72
2023/06/24 03:06:18;;;;;;;6.28;2.92;;;;;;;17.74;100.00;101312.97;5102389;28;20027;-72
2023/06/24 03:08:44;;;;;;;4.18;2.67;;;;;;;17.69;100.00;101307.50;5082040;28;20038;-72
2023/06/24 03:11:12;;;;;;;4.15;2.97;;;;;;;17.69;100.00;101312.28;5082022;28;20024;-72
2023/06/24 03:13:38;;;;;;;4.28;3.00;;;;;;;17.70;100.00;101311.13;5064661;28;20416;-72
2023/06/24 03:16:04;;;;;;;3.63;3.00;;;;;;;17.64;100.00;101310.44;5077162;28;20039;-73
2023/06/24 03:18:29;;;;;;;3.47;2.63;;;;;;;17.63;100.00;101312.44;5081602;28;20024;-73
2023/06/24 03:20:55;;;;;;;4.15;3.20;;;;;;;17.59;100.00;101311.41;5073576;28;20480;-73
2023/06/24 03:23:20;;;;;;;3.50;2.92;;;;;;;17.55;100.00;101309.56;5081595;28;20020;-73
2023/06/24 03:25:45;;;;;;;4.25;3.60;;;;;;;17.53;100.00;101309.91;5110991;28;20429;-72
2023/06/24 03:28:11;;;;;;;4.68;3.30;;;;;;;17.52;100.00;101308.22;5119460;28;20034;-72
2023/06/24 03:30:36;;;;;;;3.97;3.33;;;;;;;17.49;100.00;101305.22;5119939;28;20031;-72
2023/06/24 03:33:02;;;;;;;4.18;3.28;;;;;;;17.43;100.00;101310.97;5081226;28;20061;-73
2023/06/24 03:35:28;;;;;;;5.40;3.28;;;;;;;17.43;100.00;101307.34;5072669;28;20500;-72
2023/06/24 03:37:53;;;;;;;3.75;2.92;;;;;;;17.42;100.00;101312.13;5068274;28;20035;-73
2023/06/24 03:40:18;;;;;;;4.57;3.00;;;;;;;17.38;100.00;101313.09;5119661;28;20036;-72
2023/06/24 03:42:44;;;;;;;3.92;2.92;;;;;;;17.37;100.00;101308.63;5074642;28;20020;-73
2023/06/24 03:45:10;;;;;;;5.03;3.03;;;;;;;17.40;100.00;101305.19;5092916;28;20035;-72
2023/06/24 03:47:35;;;;;;;6.45;3.15;;;;;;;17.38;100.00;101304.66;5084335;28;20044;-72
2023/06/24 03:50:01;;;;;;;4.80;3.17;;;;;;;17.34;100.00;101306.47;5101737;28;20042;-73
2023/06/24 03:52:26;;;;;;;5.03;3.28;;;;;;;17.31;100.00;101309.94;5080841;28;20028;-72
2023/06/24 03:54:53;;;;;;;6.70;3.38;;;;;;;17.27;100.00;101306.91;5072276;28;20024;-73
2023/06/24 03:57:18;;;;;;;7.63;3.42;;;;;;;17.23;100.00;101300.28;5116935;28;20034;-72
2023/06/24 03:59:44;;;;;;;5.70;3.67;;;;;;;17.23;100.00;101307.88;5080473;28;20032;-72
2023/06/24 04:02:09;;;;;;;9.02;3.88;;;;;;;17.23;100.00;101307.88;5099010;28;20407;-72
2023/06/24 04:04:35;;;;;;;4.93;3.22;;;;;;;17.17;100.00;101310.00;5074633;28;20035;-72
2023/06/24 04:07:01;;;;;;;7.47;3.40;;;;;;;17.15;100.00;101313.09;5083987;28;20034;-72
2023/06/24 04:09:26;;;;;;;4.55;3.50;;;;;;;17.14;100.00;101311.47;5101083;28;20388;-73
2023/06/24 04:11:51;;;;;;;5.28;3.58;;;;;;;17.14;100.00;101317.06;5119104;28;20061;-72
2023/06/24 04:14:17;;;;;;;6.22;3.70;;;;;;;17.13;100.00;101321.03;5047042;28;20020;-72
2023/06/24 04:16:42;;;;;;;6.78;3.92;;;;;;;17.10;100.00;101316.03;5083787;28;20028;-72
2023/06/24 04:19:08;;;;;;;4.03;2.97;;;;;;;17.08;100.00;101315.56;5100786;28;20370;-72
2023/06/24 04:21:33;;;;;;;5.38;3.90;;;;;;;17.09;100.00;101314.38;5100745;28;20032;-73
2023/06/24 04:23:59;;;;;;;6.50;3.38;;;;;;;17.08;100.00;101318.34;5080508;28;20032;-73
2023/06/24 04:26:24;;;;;;;6.57;3.50;;;;;;;17.09;100.00;101311.59;5044580;28;20036;-73
2023/06/24 04:28:50;;;;;;;4.82;3.60;;;;;;;17.12;100.00;101318.53;5046603;28;20545;-72
2023/06/24 04:31:15;;;;;;;4.05;3.00;;;;;;;17.14;100.00;101319.06;5080841;28;20026;-72
2023/06/24 04:33:41;;;;;;;5.97;3.28;;;;;;;17.15;100.00;101313.09;5066892;28;20106;-73
2023/06/24 04:36:06;;;;;;;5.93;3.55;;;;;;;17.21;100.00;101316.63;5062594;28;20443;-72
2023/06/24 04:38:32;;;;;;;6.50;3.90;;;;;;;17.25;100.00;101316.81;5053958;28;20024;-73
2023/06/24 04:40:59;;;;;;;7.15;4.15;;;;;;;17.31;100.00;101323.97;5080374;28;20035;-72
2023/06/24 04:43:25;;;;;;;6.10;3.72;;;;;;;17.36;100.00;101315.41;5079654;28;20028;-72
2023/06/24 04:45:50;;;;;;;5.80;3.35;;;;;;;17.41;100.00;101320.88;5060459;28;20032;-73
2023/06/24 04:48:16;;;;;;;5.82;3.60;;;;;;;17.50;100.00;101313.34;5073772;28;20050;-73
2023/06/24 04:50:41;;;;;;;6.70;3.58;;;;;;;17.58;100.00;101317.38;5079993;28;20028;-72
2023/06/24 04:53:07;;;;;;;5.45;3.67;;;;;;;17.68;100.00;101310.63;5070038;28;20476;-73
2023/06/24 04:55:32;;;;;;;6.97;4.05;;;;;;;17.77;100.00;101312.31;5046432;28;20024;-73
2023/06/24 04:57:58;;;;;;;6.00;4.30;;;;;;;17.91;100.00;101308.59;5066147;28;20437;-72
2023/06/24 05:00:24;;;;;;;8.60;5.57;;;;;;;18.03;100.00;101320.09;5079830;28;20028;-73
2023/06/24 05:02:50;;;;;;;7.32;4.70;;;;;;;18.13;100.00;101318.94;5108526;28;20114;-73
2023/06/24 05:05:15;;;;;;;5.95;3.95;;;;;;;18.26;100.00;101318.81;5099810;28;20019;-73
2023/06/24 05:07:41;;;;;;;8.25;3.83;;;;;;;18.39;100.00;101321.84;5079802;28;20502;-73
2023/06/24 05:10:07;;;;;;;8.00;3.83;;;;;;;18.51;100.00;101308.78;5079789;28;20023;-73
2023/06/24 05:12:32;;;;;;;8.40;4.00;;;;;;;18.67;100.00;101306.31;5117996;28;20063;-73
2023/06/24 05:14:57;;;;;;;7.22;4.05;;;;;;;18.79;100.00;101311.31;5049081;28;20023;-73
2023/06/24 05:17:23;;;;;;;8.60;4.00;;;;;;;18.95;100.00;101315.31;5099903;28;20034;-73
2023/06/24 05:19:49;;;;;;;7.72;4.88;;;;;;;19.07;100.00;101311.81;5118040;28;20044;-73
2023/06/24 05:22:14;;;;;;;7.88;4.32;;;;;;;19.25;100.00;101304.19;5079608;28;20039;-72
2023/06/24 05:24:41;;;;;;;6.82;3.90;;;;;;;19.41;100.00;101302.47;5079392;28;20032;-73
2023/06/24 05:27:06;;;;;;;6.50;3.88;;;;;;;19.57;100.00;101299.13;5079413;28;20027;-73
2023/06/24 05:29:32;;;;;;;5.95;3.67;;;;;;;19.74;100.00;101299.09;5076093;28;20024;-73
2023/06/24 05:31:58;;;;;;;5.15;3.88;;;;;;;19.93;100.00;101300.69;5062794;28;20141;-73
2023/06/24 05:34:24;;;;;;;8.40;4.00;;;;;;;20.09;100.00;101304.59;5079626;28;20028;-73
2023/06/24 05:36:49;;;;;;;5.95;4.30;;;;;;;20.25;100.00;101300.03;5107984;28;20035;-73
2023/06/24 05:39:15;;;;;;;5.03;4.15;;;;;;;20.41;100.00;101303.06;5118038;28;20032;-73
2023/06/24 05:41:40;;;;;;;6.38;3.95;;;;;;;20.58;100.00;101292.88;5117786;28;20027;-73
2023/06/24 05:44:07;;;;;;;7.72;4.18;;;;;;;20.74;100.00;101299.56;5082126;28;20047;-73
2023/06/24 05:46:32;;;;;;;9.15;3.80;;;;;;;20.89;100.00;101296.09;5079515;28;20028;-73
2023/06/24 05:48:58;;;;;;;6.45;4.10;;;;;;;21.06;100.00;101292.31;5080955;28;20054;-73
2023/06/24 05:51:23;;;;;;;10.55;4.90;;;;;;;21.22;100.00;101297.31;5103759;28;20034;-73
2023/06/24 05:53:49;;;;;;;8.38;5.05;;;;;;;21.33;100.00;101290.06;5083200;28;20032;-73
2023/06/24 05:56:14;;;;;;;7.90;5.22;;;;;;;21.48;100.00;101297.91;5073047;28;20036;-73
2023/06/24 05:58:40;;;;;;;8.23;4.82;;;;;;;21.62;100.00;101287.09;5099574;28;20042;-73
2023/06/24 06:01:07;;;;;;;6.25;4.90;;;;;;;21.76;100.00;101291.63;5083410;28;20029;-73
2023/06/24 06:03:32;;;;;;;8.35;4.93;;;;;;;21.91;100.00;101295.75;5062211;28;20023;-73
2023/06/24 06:05:58;;;;;;;9.02;5.22;;;;;;;22.03;100.00;101290.06;5103230;28;20034;-73
2023/06/24 06:08:23;;;;;;;8.85;4.07;;;;;;;22.24;100.00;101293.66;5121493;28;20035;-73
2023/06/24 06:10:49;;;;;;;7.63;5.32;;;;;;;22.36;100.00;101298.47;5083024;28;20517;-73
2023/06/24 06:13:14;;;;;;;8.52;5.43;;;;;;;22.44;100.00;101299.53;5098437;28;20035;-73
2023/06/24 06:15:39;;;;;;;8.45;5.00;;;;;;;22.56;100.00;101302.31;5121470;28;20028;-73
2023/06/24 06:18:05;;;;;;;7.95;5.40;;;;;;;22.68;100.00;101299.47;5084571;28;20024;-73
2023/06/24 06:20:30;;;;;;;8.48;5.55;;;;;;;22.82;100.00;101289.78;5121324;28;20050;-72
2023/06/24 06:22:56;;;;;;;7.15;4.95;;;;;;;22.95;100.00;101297.88;5084534;28;20024;-73
2023/06/24 06:25:21;;;;;;;7.10;4.50;;;;;;;23.10;100.00;101298.31;5082745;28;20028;-73
2023/06/24 06:27:47;;;;;;;6.95;5.10;;;;;;;23.21;100.00;101296.63;5063128;28;20035;-73
2023/06/24 06:30:13;;;;;;;9.75;4.50;;;;;;;23.37;100.00;101300.31;5070947;28;20365;-73
2023/06/24 06:32:39;;;;;;;7.47;3.50;;;;;;;23.63;100.00;101296.16;5062943;28;20051;-73
2023/06/24 06:35:05;;;;;;;5.90;3.90;;;;;;;23.77;100.00;101292.91;5116943;28;20028;-73
2023/06/24 06:37:30;;;;;;;8.18;4.10;;;;;;;23.97;100.00;101305.16;5115904;28;20036;-73
2023/06/24 06:39:56;;;;;;;4.97;3.50;;;;;;;24.13;99.35;101305.16;5103052;28;20521;-73
2023/06/24 06:42:21;;;;;;;5.22;3.85;;;;;;;24.26;97.47;101306.69;5068732;28;20045;-73
2023/06/24 06:44:47;;;;;;;4.10;3.20;;;;;;;24.45;95.43;101306.75;5120565;28;20032;-73
2023/06/24 06:47:12;;;;;;;3.83;3.38;;;;;;;24.54;94.64;101298.03;5120340;28;20031;-73
2023/06/24 06:49:38;;;;;;;7.40;4.18;;;;;;;24.55;97.69;101299.69;5102619;28;20032;-73
2023/06/24 06:52:03;;;;;;;4.65;3.60;;;;;;;24.69;93.17;101308.53;5083628;28;20054;-73
2023/06/24 06:54:29;;;;;;;4.63;3.55;;;;;;;24.86;91.82;101304.44;5102604;28;20032;-73
2023/06/24 06:56:55;;;;;;;4.85;3.47;;;;;;;24.99;92.15;101302.28;5102315;28;20028;-73
2023/06/24 06:59:21;;;;;;;5.80;3.78;;;;;;;25.09;91.43;101295.19;5068213;28;20042;-73
2023/06/24 07:01:46;;;;;;;6.60;3.80;;;;;;;25.22;89.93;101299.53;5070841;28;20388;-73
2023/06/24 07:04:12;;;;;;;5.63;4.35;;;;;;;25.33;90.83;101291.22;5102178;28;20027;-73
2023/06/24 07:06:37;;;;;;;6.40;4.60;;;;;;;25.39;90.04;101293.38;5082968;28;20028;-73
2023/06/24 07:09:03;;;;;;;7.32;4.80;;;;;;;25.48;89.78;101295.97;5065466;28;20089;-73
2023/06/24 07:11:28;;;;;;;6.95;4.88;;;;;;;25.58;89.14;101295.38;5114651;28;20391;-73
2023/06/24 07:13:53;;;;;;;7.75;4.63;;;;;;;25.67;88.36;101292.28;5081514;28;20031;-73
2023/06/24 07:16:19;;;;;;;7.15;5.38;;;;;;;25.77;87.87;101293.66;5060792;28;20032;-73
2023/06/24 07:18:45;;;;;;;5.85;4.70;;;;;;;25.84;87.30;101288.13;5068456;28;20383;-73
2023/06/24 07:21:10;;;;;;;9.15;5.40;;;;;;;25.97;86.86;101283.91;5083068;28;20040;-73
2023/06/24 07:23:36;;;;;;;6.70;4.97;;;;;;;26.08;84.74;101284.06;5064984;28;20028;-73
2023/06/24 07:26:01;;;;;;;7.53;4.90;;;;;;;26.19;84.10;101290.75;5077050;28;20035;-73
2023/06/24 07:28:27;;;;;;;6.75;4.03;;;;;;;26.27;83.66;101280.28;5081120;28;20036;-73
2023/06/24 07:30:52;;;;;;;6.20;4.13;;;;;;;26.41;82.88;101280.53;5113943;28;20468;-73
2023/06/24 07:33:18;;;;;;;8.20;3.90;;;;;;;26.53;80.55;101288.03;5119879;28;20027;-73
2023/06/24 07:35:44;;;;;;;5.40;3.80;;;;;;;26.63;80.00;101287.34;5084619;28;20027;-66
2023/06/24 07:38:10;;;;;;;5.32;3.58;;;;;;;26.71;80.04;101280.56;5115384;28;20035;-74
2023/06/24 07:40:35;;;;;;;6.10;3.72;;;;;;;26.79;79.22;101284.31;5066304;28;20047;-73
2023/06/24 07:43:01;;;;;;;4.47;3.45;;;;;;;26.90;77.75;101279.59;5119263;28;20032;-73
2023/06/24 07:45:26;;;;;;;5.45;3.80;;;;;;;27.02;77.51;101277.69;5106052;28;20438;-73
2023/06/24 07:47:52;;;;;;;5.70;3.78;;;;;;;27.04;79.14;101290.34;5064184;28;20048;-73
2023/06/24 07:50:17;;;;;;;6.68;4.20;;;;;;;27.13;77.10;101285.16;5081470;28;20020;-73
2023/06/24 07:52:43;;;;;;;6.60;3.92;;;;;;;27.16;77.43;101280.75;5081221;28;20068;-73
2023/06/24 07:55:08;;;;;;;5.82;3.85;;;;;;;27.23;77.16;101277.97;5095001;28;20107;-72
2023/06/24 07:57:34;;;;;;;6.50;3.42;;;;;;;27.30;77.00;101266.66;5112590;28;20064;-65
2023/06/24 07:59:59;;;;;;;9.60;4.18;;;;;;;27.45;77.42;101266.81;5119029;28;20035;-65
2023/06/24 08:02:26;;;;;;;9.13;3.58;;;;;;;27.53;78.53;101275.06;5068055;28;20373;-66
2023/06/24 08:04:51;;;;;;;8.60;3.60;;;;;;;27.55;75.83;101261.22;5063620;28;20037;-74
2023/06/24 08:07:17;;;;;;;9.07;4.05;;;;;;;27.59;75.20;101264.09;5080815;28;20500;-74
2023/06/24 08:09:42;;;;;;;7.03;3.55;;;;;;;27.74;75.80;101257.28;5101050;28;20505;-74
2023/06/24 08:12:08;;;;;;;4.55;3.60;;;;;;;27.85;75.52;101252.53;5118774;28;20035;-78
2023/06/24 08:14:35;;;;;;;5.55;3.38;;;;;;;28.07;74.09;101255.56;5080581;28;20024;-74
2023/06/24 08:17:00;;;;;;;7.18;3.30;;;;;;;28.24;75.96;101254.88;5100939;28;20486;-75
2023/06/24 08:19:26;;;;;;;8.50;3.53;;;;;;;28.36;73.21;101247.19;5118879;28;20023;-75
2023/06/24 08:21:51;;;;;;;4.40;3.50;;;;;;;28.54;71.18;101250.19;5100827;28;20030;-75
2023/06/24 08:24:17;;;;;;;5.25;3.50;;;;;;;28.68;71.19;101248.22;5100849;28;20061;-74
2023/06/24 08:26:42;;;;;;;5.90;3.65;;;;;;;28.77;70.69;101247.03;5080323;28;20028;-75
2023/06/24 08:29:08;;;;;;;4.75;3.22;;;;;;;28.91;70.31;101249.94;5093346;28;20038;-75
2023/06/24 08:31:33;;;;;;;4.18;3.30;;;;;;;29.06;70.27;101247.97;5080133;28;20484;-75
2023/06/24 08:33:59;;;;;;;5.63;3.75;;;;;;;29.22;68.19;101247.63;5099256;28;20039;-75
2023/06/24 08:36:26;;;;;;;5.05;3.33;;;;;;;29.38;68.23;101242.34;5105071;28;20120;-75
2023/06/24 08:38:52;;;;;;;6.40;3.80;;;;;;;29.50;67.05;101239.09;5088554;28;20024;-75
2023/06/24 08:41:17;;;;;;;3.88;3.10;;;;;;;29.67;66.29;101239.53;5118361;28;20035;-75
2023/06/24 08:43:43;;;;;;;3.30;2.85;;;;;;;29.75;64.97;101242.00;5099959;28;20032;-75
2023/06/24 08:46:08;;;;;;;4.95;3.33;;;;;;;29.85;63.05;101234.66;5118414;28;20031;-75
2023/06/24 08:48:39;;;;;;;3.97;3.40;;;;;;;29.94;62.95;101228.50;5118377;28;20054;-75
2023/06/24 08:51:05;;;;;;;3.92;3.28;;;;;;;29.98;61.54;101221.56;5118419;28;20023;-75
2023/06/24 08:53:30;;;;;;;4.15;3.75;;;;;;;30.15;60.74;101221.94;5079922;28;20068;-75
2023/06/24 08:55:56;;;;;;;4.68;2.85;;;;;;;30.25;60.69;101216.22;5100182;28;20437;-75
2023/06/24 08:58:21;;;;;;;3.95;3.20;;;;;;;30.39;62.10;101218.22;5099495;28;20027;-75
2023/06/24 09:00:47;;;;;;;4.75;3.22;;;;;;;30.49;59.36;101214.50;5114982;28;20023;-75
2023/06/24 09:03:12;;;;;;;5.28;3.33;;;;;;;30.64;60.24;101214.44;5092735;28;20031;-75
2023/06/24 09:05:38;;;;;;;5.85;3.10;;;;;;;30.75;59.46;101209.50;5117917;28;20118;-75
2023/06/24 09:08:03;;;;;;;5.30;2.97;;;;;;;30.87;57.76;101211.09;5118214;28;20027;-69
2023/06/24 09:10:32;;;;;;;3.65;3.00;;;;;;;31.04;57.72;101209.41;5118217;28;20053;-74
2023/06/24 09:12:57;;;;;;;4.03;3.08;;;;;;;31.12;55.24;101210.97;5062915;28;20119;-74
2023/06/24 09:15:23;;;;;;;3.45;2.80;;;;;;;31.30;56.01;101210.88;5100043;28;20027;-74
2023/06/24 09:17:48;;;;;;;4.50;2.90;;;;;;;31.42;54.09;101200.97;5118064;28;20023;-74
2023/06/24 09:20:13;;;;;;;4.10;2.97;;;;;;;31.56;53.99;101195.91;5110916;28;20027;-74
2023/06/24 09:22:42;;;;;;;3.00;2.58;;;;;;;31.68;54.06;101197.47;5117585;28;20038;-74
2023/06/24 09:25:08;;;;;;;3.53;2.63;;;;;;;31.81;53.73;101187.09;5099562;28;20065;-74
2023/06/24 09:27:33;;;;;;;4.03;2.65;;;;;;;31.92;51.71;101184.16;5117654;28;20028;-74
2023/06/24 09:29:59;;;;;;;3.58;2.78;;;;;;;32.02;52.63;101173.81;5104416;28;20024;-74
2023/06/24 09:32:30;;;;;;;3.63;2.83;;;;;;;32.17;51.88;101183.06;5117984;28;20024;-74
2023/06/24 09:34:56;;;;;;;4.30;2.60;;;;;;;32.24;50.52;101178.06;5118333;28;20035;-74
2023/06/24 09:37:23;;;;;;;2.97;2.72;;;;;;;32.37;49.43;101180.38;5086209;28;20035;-74
2023/06/24 09:39:48;;;;;;;3.20;2.67;;;;;;;32.50;48.09;101181.50;5117820;28;20042;-74
2023/06/24 09:42:13;;;;;;;6.30;2.75;;;;;;;32.60;47.25;101183.44;5117369;28;20024;-74
2023/06/24 09:44:39;;;;;;;3.42;2.67;;;;;;;32.71;44.74;101172.59;5099538;28;20396;-74
2023/06/24 09:47:04;;;;;;;3.35;2.58;;;;;;;32.78;44.97;101173.75;5099555;28;20035;-75
2023/06/24 09:49:30;;;;;;;4.60;2.97;;;;;;;32.81;44.08;101170.00;5117875;28;20035;-74
2023/06/24 09:51:57;;;;;;;4.72;3.25;;;;;;;32.84;43.86;101172.81;5117722;28;20081;-74
2023/06/24 09:54:24;;;;;;;4.45;2.92;;;;;;;32.85;44.56;101165.84;5079318;28;20032;-74
2023/06/24 09:56:50;;;;;;;3.85;2.50;;;;;;;32.98;46.22;101166.03;5073501;28;20028;-74
2023/06/24 09:59:19;;;;;;;2.70;2.20;;;;;;;33.07;44.13;101169.25;5092916;28;20560;-75
2023/06/24 10:01:45;;;;;;;2.92;2.50;;;;;;;33.13;43.23;101158.88;5099748;28;20032;-75
2023/06/24 10:04:15;;;;;;;2.72;2.22;;;;;;;33.30;43.31;101167.66;5079464;28;20035;-75
2023/06/24 10:06:41;;;;;;;4.32;2.67;;;;;;;33.34;43.34;101159.78;5099646;28;20038;-75
2023/06/24 10:09:06;;;;;;;2.78;2.45;;;;;;;33.35;42.02;101152.78;5117567;28;20031;-75
2023/06/24 10:11:32;;;;;;;4.25;2.53;;;;;;;33.42;41.68;101154.72;5117505;28;20064;-74
2023/06/24 10:13:57;;;;;;;5.03;2.70;;;;;;;33.47;42.03;101145.59;5099298;28;20034;-75
2023/06/24 10:16:23;;;;;;;6.88;2.60;;;;;;;33.46;41.76;101146.81;5117720;28;20106;-75
2023/06/24 10:18:48;;;;;;;3.53;2.47;;;;;;;33.52;40.63;101145.94;5117582;28;20434;-75
2023/06/24 10:21:15;;;;;;;4.35;2.60;;;;;;;33.61;40.34;101142.50;5117494;28;20034;-75
2023/06/24 10:23:42;;;;;;;4.38;2.67;;;;;;;33.72;39.96;101140.22;5099342;28;20605;-75
2023/06/24 10:26:24;;;;;;;5.82;2.50;;;;;;;33.86;40.40;101136.28;5099250;28;20035;-69
2023/06/24 10:29:05;;;;;;;5.63;2.65;;;;;;;33.86;40.63;101129.69;5078717;28;20107;-77
2023/06/24 10:31:40;;;;;;;5.05;2.83;;;;;;;33.97;40.23;101125.34;5117115;28;20042;-76
2023/06/24 10:34:37;;;;;;;3.50;2.45;;;;;;;34.09;39.94;101123.09;5117789;28;20031;-77
2023/06/24 10:37:18;;;;;;;4.78;2.67;;;;;;;34.22;40.46;101118.31;5074440;28;20048;-77
2023/06/24 10:39:59;;;;;;;3.28;2.67;;;;;;;34.31;40.35;101121.41;5108126;28;20087;-77
2023/06/24 10:42:25;;;;;;;4.20;2.63;;;;;;;34.43;39.26;101114.94;5120311;28;20059;-77
2023/06/24 10:44:51;;;;;;;3.90;2.70;;;;;;;34.51;39.12;101109.03;5121022;28;20560;-77
2023/06/24 10:47:17;;;;;;;5.07;2.53;;;;;;;34.63;39.73;101117.03;5102477;28;20027;-77
2023/06/24 10:49:43;;;;;;;3.47;2.50;;;;;;;34.70;38.48;101108.22;5102643;28;20024;-77
2023/06/24 10:52:11;;;;;;;4.47;2.40;;;;;;;34.80;38.46;101107.19;5120681;28;20033;-77
2023/06/24 10:54:37;;;;;;;3.28;2.45;;;;;;;34.90;38.09;101111.84;5102569;28;20024;-77
2023/06/24 10:57:04;;;;;;;3.97;2.35;;;;;;;34.89;38.19;101107.38;5102451;28;20032;-77
2023/06/24 10:59:34;;;;;;;5.35;2.67;;;;;;;34.96;38.03;101103.47;5101976;28;20088;-77
2023/06/24 11:02:00;;;;;;;3.40;2.42;;;;;;;34.97;37.87;101099.34;5082227;28;20032;-77
2023/06/24 11:04:25;;;;;;;3.70;2.65;;;;;;;35.00;36.26;101091.88;5079602;28;20034;-77
2023/06/24 11:07:00;;;;;;;4.90;2.85;;;;;;;34.80;36.03;101095.63;5085198;28;20388;-77
2023/06/24 11:09:26;;;;;;;3.90;2.58;;;;;;;34.98;36.63;101094.38;5065202;28;20027;-77
2023/06/24 11:11:52;;;;;;;4.63;2.92;;;;;;;34.79;36.42;101091.09;5100293;28;20094;-77
2023/06/24 11:14:17;;;;;;;4.07;2.55;;;;;;;34.81;35.59;101091.47;5119961;28;20023;-77
2023/06/24 11:16:45;;;;;;;2.72;2.40;;;;;;;34.81;36.70;101085.72;5085200;28;20028;-77
2023/06/24 11:19:10;;;;;;;4.72;3.10;;;;;;;34.83;37.02;101094.75;5108615;28;20060;-77